Golden Isles, Florida
Current Conditions -  °F | °C
As of 5:53 PM on Wednesday 17 Dec 2014 (Local Time) from KHWO Reporting Station
Clear Clear  
Wind Chill: 73°   Ceiling: Unl
Heat Index: 73°   Visibility: 10mi
Dew Point: 54°   Wind: 5mph
Humidity: 51%   Direction: 140°SE
Pressure: 30.12"   Gusts: NA
Location:  25.9859°N, 80.1469°W
Report Text: KHWO 172253Z 14004KT 10SM CLR 23/12 A3012 RMK AO2 SLP201 T02280122
Loading
Personal Weather Stations






























Interactive Weather Map New forecast layout! Learn more

10-Day Weather Forecast

Advertisements
Track Severe Weather on mobile